sensor_id;sensor_type;location;lat;lon;timestamp;P1;durP1;ratioP1;P2;durP2;ratioP2
19036;SDS011;9651;49.138;8.900;2023-06-10T00:02:55;8.45;;;7.65;;
19036;SDS011;9651;49.138;8.900;2023-06-10T00:06:57;8.38;;;7.38;;
19036;SDS011;9651;49.138;8.900;2023-06-10T00:11:00;9.85;;;7.40;;
19036;SDS011;9651;49.138;8.900;2023-06-10T00:15:02;8.18;;;7.38;;
19036;SDS011;9651;49.138;8.900;2023-06-10T00:19:05;8.70;;;6.88;;
19036;SDS011;9651;49.138;8.900;2023-06-10T00:23:08;7.80;;;6.93;;
19036;SDS011;9651;49.138;8.900;2023-06-10T00:27:11;8.35;;;7.18;;
19036;SDS011;9651;49.138;8.900;2023-06-10T00:31:13;8.30;;;7.45;;
19036;SDS011;9651;49.138;8.900;2023-06-10T00:35:14;10.75;;;7.38;;
19036;SDS011;9651;49.138;8.900;2023-06-10T00:39:16;8.48;;;6.88;;
19036;SDS011;9651;49.138;8.900;2023-06-10T00:43:20;8.13;;;7.35;;
19036;SDS011;9651;49.138;8.900;2023-06-10T00:47:22;8.90;;;7.18;;
19036;SDS011;9651;49.138;8.900;2023-06-10T00:51:24;8.63;;;7.72;;
19036;SDS011;9651;49.138;8.900;2023-06-10T00:55:26;11.30;;;7.82;;
19036;SDS011;9651;49.138;8.900;2023-06-10T00:59:29;8.40;;;7.40;;
19036;SDS011;9651;49.138;8.900;2023-06-10T01:03:32;9.63;;;7.90;;
19036;SDS011;9651;49.138;8.900;2023-06-10T01:07:37;8.95;;;8.02;;
19036;SDS011;9651;49.138;8.900;2023-06-10T01:11:45;9.18;;;7.40;;
19036;SDS011;9651;49.138;8.900;2023-06-10T01:15:50;8.60;;;7.57;;
19036;SDS011;9651;49.138;8.900;2023-06-10T01:19:53;8.02;;;6.90;;
19036;SDS011;9651;49.138;8.900;2023-06-10T01:23:57;7.85;;;7.07;;
19036;SDS011;9651;49.138;8.900;2023-06-10T01:28:01;10.48;;;8.13;;
19036;SDS011;9651;49.138;8.900;2023-06-10T01:32:08;8.35;;;7.47;;
19036;SDS011;9651;49.138;8.900;2023-06-10T01:36:13;8.55;;;7.65;;
19036;SDS011;9651;49.138;8.900;2023-06-10T01:40:19;9.23;;;7.70;;
19036;SDS011;9651;49.138;8.900;2023-06-10T01:44:22;7.95;;;7.07;;
19036;SDS011;9651;49.138;8.900;2023-06-10T01:48:24;9.07;;;7.82;;
19036;SDS011;9651;49.138;8.900;2023-06-10T01:52:26;10.00;;;8.07;;
19036;SDS011;9651;49.138;8.900;2023-06-10T01:56:29;9.07;;;8.18;;
19036;SDS011;9651;49.138;8.900;2023-06-10T02:00:31;8.70;;;7.63;;
19036;SDS011;9651;49.138;8.900;2023-06-10T02:04:35;8.75;;;7.80;;
19036;SDS011;9651;49.138;8.900;2023-06-10T02:08:37;11.43;;;8.43;;
19036;SDS011;9651;49.138;8.900;2023-06-10T02:12:40;10.90;;;7.97;;
19036;SDS011;9651;49.138;8.900;2023-06-10T02:16:42;10.80;;;8.00;;
19036;SDS011;9651;49.138;8.900;2023-06-10T02:20:45;10.93;;;8.32;;
19036;SDS011;9651;49.138;8.900;2023-06-10T02:24:47;10.70;;;8.75;;
19036;SDS011;9651;49.138;8.900;2023-06-10T02:28:51;11.00;;;9.00;;
19036;SDS011;9651;49.138;8.900;2023-06-10T02:32:53;10.77;;;9.43;;
19036;SDS011;9651;49.138;8.900;2023-06-10T02:36:57;10.93;;;9.32;;
19036;SDS011;9651;49.138;8.900;2023-06-10T02:40:59;11.70;;;8.43;;
19036;SDS011;9651;49.138;8.900;2023-06-10T02:45:03;10.30;;;8.15;;
19036;SDS011;9651;49.138;8.900;2023-06-10T02:49:12;7.53;;;6.55;;
19036;SDS011;9651;49.138;8.900;2023-06-10T02:53:14;7.20;;;6.50;;
19036;SDS011;9651;49.138;8.900;2023-06-10T02:57:20;8.40;;;7.53;;
19036;SDS011;9651;49.138;8.900;2023-06-10T03:01:24;9.15;;;7.80;;
19036;SDS011;9651;49.138;8.900;2023-06-10T03:05:33;10.77;;;7.90;;
19036;SDS011;9651;49.138;8.900;2023-06-10T03:09:38;9.07;;;7.60;;
19036;SDS011;9651;49.138;8.900;2023-06-10T03:13:43;11.13;;;8.18;;
19036;SDS011;9651;49.138;8.900;2023-06-10T03:17:50;7.47;;;6.68;;
19036;SDS011;9651;49.138;8.900;2023-06-10T03:22:07;8.50;;;7.50;;
19036;SDS011;9651;49.138;8.900;2023-06-10T03:26:15;9.82;;;6.80;;
19036;SDS011;9651;49.138;8.900;2023-06-10T03:30:19;7.28;;;6.13;;
19036;SDS011;9651;49.138;8.900;2023-06-10T03:34:23;8.70;;;6.85;;
19036;SDS011;9651;49.138;8.900;2023-06-10T03:38:25;8.77;;;6.45;;
19036;SDS011;9651;49.138;8.900;2023-06-10T03:42:28;6.93;;;6.18;;
19036;SDS011;9651;49.138;8.900;2023-06-10T03:46:30;10.60;;;6.65;;
19036;SDS011;9651;49.138;8.900;2023-06-10T03:50:33;7.93;;;7.05;;
19036;SDS011;9651;49.138;8.900;2023-06-10T03:54:36;7.10;;;6.40;;
19036;SDS011;9651;49.138;8.900;2023-06-10T03:58:38;8.82;;;6.57;;
19036;SDS011;9651;49.138;8.900;2023-06-10T04:02:41;6.97;;;6.28;;
19036;SDS011;9651;49.138;8.900;2023-06-10T04:06:52;6.90;;;6.20;;
19036;SDS011;9651;49.138;8.900;2023-06-10T04:10:56;8.63;;;6.88;;
19036;SDS011;9651;49.138;8.900;2023-06-10T04:14:58;7.60;;;6.72;;
19036;SDS011;9651;49.138;8.900;2023-06-10T04:19:01;10.32;;;6.72;;
19036;SDS011;9651;49.138;8.900;2023-06-10T04:23:04;7.93;;;6.03;;
19036;SDS011;9651;49.138;8.900;2023-06-10T04:27:07;7.65;;;6.18;;
19036;SDS011;9651;49.138;8.900;2023-06-10T04:31:10;10.55;;;7.20;;
19036;SDS011;9651;49.138;8.900;2023-06-10T04:35:13;8.27;;;6.40;;
19036;SDS011;9651;49.138;8.900;2023-06-10T04:39:18;6.93;;;5.13;;
19036;SDS011;9651;49.138;8.900;2023-06-10T04:43:20;8.55;;;5.88;;
19036;SDS011;9651;49.138;8.900;2023-06-10T04:47:23;7.10;;;6.40;;
19036;SDS011;9651;49.138;8.900;2023-06-10T04:51:25;6.75;;;5.97;;
19036;SDS011;9651;49.138;8.900;2023-06-10T04:55:28;7.43;;;6.63;;
19036;SDS011;9651;49.138;8.900;2023-06-10T04:59:30;8.43;;;6.25;;
19036;SDS011;9651;49.138;8.900;2023-06-10T05:03:32;7.03;;;5.97;;
19036;SDS011;9651;49.138;8.900;2023-06-10T05:07:34;7.43;;;6.72;;
19036;SDS011;9651;49.138;8.900;2023-06-10T05:11:37;6.90;;;6.30;;
19036;SDS011;9651;49.138;8.900;2023-06-10T05:15:39;7.93;;;6.72;;
19036;SDS011;9651;49.138;8.900;2023-06-10T05:19:44;7.45;;;6.68;;
19036;SDS011;9651;49.138;8.900;2023-06-10T05:23:47;6.82;;;6.15;;
19036;SDS011;9651;49.138;8.900;2023-06-10T05:27:50;6.88;;;6.18;;
19036;SDS011;9651;49.138;8.900;2023-06-10T05:31:52;6.80;;;6.10;;
19036;SDS011;9651;49.138;8.900;2023-06-10T05:35:57;7.63;;;6.82;;
19036;SDS011;9651;49.138;8.900;2023-06-10T05:39:59;7.57;;;6.88;;
19036;SDS011;9651;49.138;8.900;2023-06-10T05:44:02;7.38;;;6.63;;
19036;SDS011;9651;49.138;8.900;2023-06-10T05:48:04;7.45;;;6.70;;
19036;SDS011;9651;49.138;8.900;2023-06-10T05:52:06;7.25;;;6.60;;
19036;SDS011;9651;49.138;8.900;2023-06-10T05:56:08;7.20;;;6.05;;
19036;SDS011;9651;49.138;8.900;2023-06-10T06:00:12;7.70;;;6.95;;
19036;SDS011;9651;49.138;8.900;2023-06-10T06:04:15;7.05;;;5.95;;
19036;SDS011;9651;49.138;8.900;2023-06-10T06:08:17;6.82;;;6.22;;
19036;SDS011;9651;49.138;8.900;2023-06-10T06:12:19;6.32;;;5.82;;
19036;SDS011;9651;49.138;8.900;2023-06-10T06:16:22;6.38;;;5.75;;
19036;SDS011;9651;49.138;8.900;2023-06-10T06:20:24;6.32;;;5.72;;
19036;SDS011;9651;49.138;8.900;2023-06-10T06:24:26;10.10;;;5.97;;
19036;SDS011;9651;49.138;8.900;2023-06-10T06:28:28;10.27;;;6.50;;
19036;SDS011;9651;49.138;8.900;2023-06-10T06:32:32;6.13;;;5.63;;
19036;SDS011;9651;49.138;8.900;2023-06-10T06:36:34;6.05;;;5.45;;
19036;SDS011;9651;49.138;8.900;2023-06-10T06:40:36;5.38;;;4.88;;
19036;SDS011;9651;49.138;8.900;2023-06-10T06:44:38;6.13;;;5.63;;
19036;SDS011;9651;49.138;8.900;2023-06-10T06:48:41;5.88;;;5.28;;
19036;SDS011;9651;49.138;8.900;2023-06-10T06:52:43;6.60;;;6.00;;
19036;SDS011;9651;49.138;8.900;2023-06-10T06:56:45;7.15;;;5.95;;
19036;SDS011;9651;49.138;8.900;2023-06-10T07:00:47;6.25;;;5.65;;
19036;SDS011;9651;49.138;8.900;2023-06-10T07:04:50;6.03;;;5.18;;
19036;SDS011;9651;49.138;8.900;2023-06-10T07:08:55;5.30;;;4.80;;
19036;SDS011;9651;49.138;8.900;2023-06-10T07:12:57;5.22;;;4.70;;
19036;SDS011;9651;49.138;8.900;2023-06-10T07:16:59;7.93;;;4.90;;
19036;SDS011;9651;49.138;8.900;2023-06-10T07:21:02;6.95;;;4.63;;
19036;SDS011;9651;49.138;8.900;2023-06-10T07:25:04;5.20;;;4.50;;
19036;SDS011;9651;49.138;8.900;2023-06-10T07:29:06;4.85;;;4.45;;
19036;SDS011;9651;49.138;8.900;2023-06-10T07:33:08;5.05;;;3.97;;
19036;SDS011;9651;49.138;8.900;2023-06-10T07:37:12;8.18;;;4.47;;
19036;SDS011;9651;49.138;8.900;2023-06-10T07:41:14;4.95;;;4.45;;
19036;SDS011;9651;49.138;8.900;2023-06-10T07:45:18;7.38;;;5.00;;
19036;SDS011;9651;49.138;8.900;2023-06-10T07:49:20;8.20;;;5.15;;
19036;SDS011;9651;49.138;8.900;2023-06-10T07:53:23;6.70;;;4.75;;
19036;SDS011;9651;49.138;8.900;2023-06-10T07:57:25;5.80;;;4.82;;
19036;SDS011;9651;49.138;8.900;2023-06-10T08:01:26;6.10;;;4.72;;
19036;SDS011;9651;49.138;8.900;2023-06-10T08:05:30;5.50;;;4.80;;
19036;SDS011;9651;49.138;8.900;2023-06-10T08:09:33;5.57;;;4.65;;
19036;SDS011;9651;49.138;8.900;2023-06-10T08:13:35;4.78;;;4.38;;
19036;SDS011;9651;49.138;8.900;2023-06-10T08:17:38;4.93;;;4.53;;
19036;SDS011;9651;49.138;8.900;2023-06-10T08:21:40;5.15;;;4.68;;
19036;SDS011;9651;49.138;8.900;2023-06-10T08:25:43;4.97;;;4.47;;
19036;SDS011;9651;49.138;8.900;2023-06-10T08:29:45;4.90;;;4.50;;
19036;SDS011;9651;49.138;8.900;2023-06-10T08:33:46;5.20;;;4.80;;
19036;SDS011;9651;49.138;8.900;2023-06-10T08:37:48;5.45;;;4.53;;
19036;SDS011;9651;49.138;8.900;2023-06-10T08:41:56;4.65;;;4.22;;
19036;SDS011;9651;49.138;8.900;2023-06-10T08:46:06;5.10;;;4.68;;
19036;SDS011;9651;49.138;8.900;2023-06-10T08:50:10;5.25;;;4.85;;
19036;SDS011;9651;49.138;8.900;2023-06-10T08:54:14;16.13;;;14.10;;
19036;SDS011;9651;49.138;8.900;2023-06-10T08:58:20;5.70;;;5.20;;
19036;SDS011;9651;49.138;8.900;2023-06-10T09:02:22;4.88;;;4.35;;
19036;SDS011;9651;49.138;8.900;2023-06-10T09:06:25;5.63;;;4.88;;
19036;SDS011;9651;49.138;8.900;2023-06-10T09:10:27;5.53;;;4.85;;
19036;SDS011;9651;49.138;8.900;2023-06-10T09:14:31;5.45;;;4.90;;
19036;SDS011;9651;49.138;8.900;2023-06-10T09:18:33;5.97;;;5.10;;
19036;SDS011;9651;49.138;8.900;2023-06-10T09:22:36;5.20;;;4.80;;
19036;SDS011;9651;49.138;8.900;2023-06-10T09:26:38;5.05;;;4.63;;
19036;SDS011;9651;49.138;8.900;2023-06-10T09:30:41;5.05;;;4.65;;
19036;SDS011;9651;49.138;8.900;2023-06-10T09:34:43;5.13;;;4.60;;
19036;SDS011;9651;49.138;8.900;2023-06-10T09:38:45;5.30;;;4.80;;
19036;SDS011;9651;49.138;8.900;2023-06-10T09:42:52;5.53;;;5.03;;
19036;SDS011;9651;49.138;8.900;2023-06-10T09:46:57;4.78;;;4.38;;
19036;SDS011;9651;49.138;8.900;2023-06-10T09:50:59;4.95;;;4.47;;
19036;SDS011;9651;49.138;8.900;2023-06-10T09:55:01;4.97;;;4.57;;
19036;SDS011;9651;49.138;8.900;2023-06-10T09:59:04;4.95;;;4.55;;
19036;SDS011;9651;49.138;8.900;2023-06-10T10:03:08;8.38;;;5.03;;
19036;SDS011;9651;49.138;8.900;2023-06-10T10:07:10;4.50;;;4.20;;
19036;SDS011;9651;49.138;8.900;2023-06-10T10:11:12;5.35;;;4.60;;
19036;SDS011;9651;49.138;8.900;2023-06-10T10:15:15;4.90;;;4.50;;
19036;SDS011;9651;49.138;8.900;2023-06-10T10:19:23;4.65;;;4.20;;
19036;SDS011;9651;49.138;8.900;2023-06-10T10:23:29;4.38;;;3.95;;
19036;SDS011;9651;49.138;8.900;2023-06-10T10:27:35;5.05;;;4.25;;
19036;SDS011;9651;49.138;8.900;2023-06-10T10:31:47;5.15;;;4.30;;
19036;SDS011;9651;49.138;8.900;2023-06-10T10:35:55;4.00;;;3.70;;
19036;SDS011;9651;49.138;8.900;2023-06-10T10:39:57;4.10;;;3.70;;
19036;SDS011;9651;49.138;8.900;2023-06-10T10:44:01;6.72;;;4.30;;
19036;SDS011;9651;49.138;8.900;2023-06-10T10:48:07;4.60;;;4.20;;
19036;SDS011;9651;49.138;8.900;2023-06-10T10:52:13;4.63;;;3.58;;
19036;SDS011;9651;49.138;8.900;2023-06-10T10:56:15;3.75;;;3.45;;
19036;SDS011;9651;49.138;8.900;2023-06-10T11:00:25;4.13;;;3.50;;
19036;SDS011;9651;49.138;8.900;2023-06-10T11:04:29;3.60;;;3.35;;
19036;SDS011;9651;49.138;8.900;2023-06-10T11:08:48;5.47;;;3.90;;
19036;SDS011;9651;49.138;8.900;2023-06-10T11:12:51;4.15;;;3.75;;
19036;SDS011;9651;49.138;8.900;2023-06-10T11:16:54;3.95;;;3.55;;
19036;SDS011;9651;49.138;8.900;2023-06-10T11:20:59;3.63;;;3.33;;
19036;SDS011;9651;49.138;8.900;2023-06-10T11:25:03;4.35;;;3.95;;
19036;SDS011;9651;49.138;8.900;2023-06-10T11:29:15;3.90;;;3.63;;
19036;SDS011;9651;49.138;8.900;2023-06-10T11:33:17;3.40;;;3.10;;
19036;SDS011;9651;49.138;8.900;2023-06-10T11:37:18;3.97;;;3.67;;
19036;SDS011;9651;49.138;8.900;2023-06-10T11:41:23;3.63;;;3.33;;
19036;SDS011;9651;49.138;8.900;2023-06-10T11:45:26;4.35;;;3.85;;
19036;SDS011;9651;49.138;8.900;2023-06-10T11:49:28;4.03;;;3.72;;
19036;SDS011;9651;49.138;8.900;2023-06-10T11:53:30;4.10;;;3.75;;
19036;SDS011;9651;49.138;8.900;2023-06-10T11:57:35;4.78;;;4.25;;
19036;SDS011;9651;49.138;8.900;2023-06-10T12:01:37;3.05;;;2.85;;
19036;SDS011;9651;49.138;8.900;2023-06-10T12:05:54;4.38;;;3.50;;
19036;SDS011;9651;49.138;8.900;2023-06-10T12:10:00;3.70;;;3.40;;
19036;SDS011;9651;49.138;8.900;2023-06-10T12:14:03;4.28;;;3.47;;
19036;SDS011;9651;49.138;8.900;2023-06-10T12:18:05;4.03;;;3.55;;
19036;SDS011;9651;49.138;8.900;2023-06-10T12:22:07;5.28;;;3.55;;
19036;SDS011;9651;49.138;8.900;2023-06-10T12:26:10;3.88;;;3.58;;
19036;SDS011;9651;49.138;8.900;2023-06-10T12:30:18;4.18;;;3.70;;
19036;SDS011;9651;49.138;8.900;2023-06-10T12:34:27;4.72;;;4.32;;
19036;SDS011;9651;49.138;8.900;2023-06-10T12:38:36;4.70;;;4.07;;
19036;SDS011;9651;49.138;8.900;2023-06-10T12:42:39;3.83;;;3.53;;
19036;SDS011;9651;49.138;8.900;2023-06-10T12:46:43;3.80;;;3.50;;
19036;SDS011;9651;49.138;8.900;2023-06-10T12:50:49;4.18;;;3.63;;
19036;SDS011;9651;49.138;8.900;2023-06-10T12:54:52;3.50;;;3.30;;
19036;SDS011;9651;49.138;8.900;2023-06-10T12:58:54;3.97;;;3.58;;
19036;SDS011;9651;49.138;8.900;2023-06-10T13:02:59;3.83;;;3.35;;
19036;SDS011;9651;49.138;8.900;2023-06-10T13:07:02;3.72;;;3.42;;
19036;SDS011;9651;49.138;8.900;2023-06-10T13:11:03;3.63;;;3.00;;
19036;SDS011;9651;49.138;8.900;2023-06-10T13:15:06;3.50;;;3.20;;
19036;SDS011;9651;49.138;8.900;2023-06-10T13:19:09;3.55;;;3.35;;
19036;SDS011;9651;49.138;8.900;2023-06-10T13:23:11;3.33;;;3.10;;
19036;SDS011;9651;49.138;8.900;2023-06-10T13:27:13;3.97;;;3.28;;
19036;SDS011;9651;49.138;8.900;2023-06-10T13:31:15;3.50;;;3.20;;
19036;SDS011;9651;49.138;8.900;2023-06-10T13:35:19;3.00;;;2.75;;
19036;SDS011;9651;49.138;8.900;2023-06-10T13:39:21;4.20;;;3.45;;
19036;SDS011;9651;49.138;8.900;2023-06-10T13:43:23;4.82;;;3.72;;
19036;SDS011;9651;49.138;8.900;2023-06-10T13:47:24;3.78;;;3.45;;
19036;SDS011;9651;49.138;8.900;2023-06-10T13:51:28;3.50;;;3.00;;
19036;SDS011;9651;49.138;8.900;2023-06-10T13:55:29;3.38;;;3.17;;
19036;SDS011;9651;49.138;8.900;2023-06-10T13:59:31;3.38;;;3.08;;
19036;SDS011;9651;49.138;8.900;2023-06-10T14:03:33;3.25;;;2.95;;
19036;SDS011;9651;49.138;8.900;2023-06-10T14:07:37;3.30;;;3.10;;
19036;SDS011;9651;49.138;8.900;2023-06-10T14:11:40;4.13;;;3.20;;
19036;SDS011;9651;49.138;8.900;2023-06-10T14:15:42;3.35;;;3.05;;
19036;SDS011;9651;49.138;8.900;2023-06-10T14:19:44;3.70;;;2.83;;
19036;SDS011;9651;49.138;8.900;2023-06-10T14:23:47;3.22;;;2.92;;
19036;SDS011;9651;49.138;8.900;2023-06-10T14:27:51;3.22;;;3.00;;
19036;SDS011;9651;49.138;8.900;2023-06-10T14:31:53;3.53;;;3.22;;
19036;SDS011;9651;49.138;8.900;2023-06-10T14:35:55;3.03;;;2.83;;
19036;SDS011;9651;49.138;8.900;2023-06-10T14:39:58;2.97;;;2.78;;
19036;SDS011;9651;49.138;8.900;2023-06-10T14:44:00;3.88;;;2.78;;
19036;SDS011;9651;49.138;8.900;2023-06-10T14:48:02;3.00;;;2.80;;
19036;SDS011;9651;49.138;8.900;2023-06-10T14:52:04;3.60;;;3.28;;
19036;SDS011;9651;49.138;8.900;2023-06-10T14:56:08;3.40;;;3.10;;
19036;SDS011;9651;49.138;8.900;2023-06-10T15:00:10;3.25;;;3.05;;
19036;SDS011;9651;49.138;8.900;2023-06-10T15:04:15;3.40;;;3.10;;
19036;SDS011;9651;49.138;8.900;2023-06-10T15:08:17;3.95;;;3.33;;
19036;SDS011;9651;49.138;8.900;2023-06-10T15:12:20;3.22;;;2.92;;
19036;SDS011;9651;49.138;8.900;2023-06-10T15:16:22;3.20;;;2.88;;
19036;SDS011;9651;49.138;8.900;2023-06-10T15:20:24;3.42;;;3.22;;
19036;SDS011;9651;49.138;8.900;2023-06-10T15:24:26;3.47;;;3.17;;
19036;SDS011;9651;49.138;8.900;2023-06-10T15:28:29;4.22;;;3.00;;
19036;SDS011;9651;49.138;8.900;2023-06-10T15:32:31;3.03;;;2.83;;
19036;SDS011;9651;49.138;8.900;2023-06-10T15:36:33;4.28;;;3.17;;
19036;SDS011;9651;49.138;8.900;2023-06-10T15:40:36;3.40;;;3.10;;
19036;SDS011;9651;49.138;8.900;2023-06-10T15:44:39;4.68;;;3.35;;
19036;SDS011;9651;49.138;8.900;2023-06-10T15:48:41;2.97;;;2.70;;
19036;SDS011;9651;49.138;8.900;2023-06-10T15:52:43;4.10;;;3.70;;
19036;SDS011;9651;49.138;8.900;2023-06-10T15:56:45;4.60;;;4.10;;
19036;SDS011;9651;49.138;8.900;2023-06-10T16:00:48;3.30;;;3.10;;
19036;SDS011;9651;49.138;8.900;2023-06-10T16:04:51;3.55;;;3.20;;
19036;SDS011;9651;49.138;8.900;2023-06-10T16:08:52;4.18;;;3.55;;
19036;SDS011;9651;49.138;8.900;2023-06-10T16:12:54;3.22;;;3.03;;
19036;SDS011;9651;49.138;8.900;2023-06-10T16:16:57;4.13;;;3.30;;
19036;SDS011;9651;49.138;8.900;2023-06-10T16:21:00;3.70;;;3.40;;
19036;SDS011;9651;49.138;8.900;2023-06-10T16:25:03;2.90;;;2.70;;
19036;SDS011;9651;49.138;8.900;2023-06-10T16:29:05;4.00;;;3.25;;
19036;SDS011;9651;49.138;8.900;2023-06-10T16:33:08;3.65;;;2.85;;
19036;SDS011;9651;49.138;8.900;2023-06-10T16:37:11;3.40;;;3.08;;
19036;SDS011;9651;49.138;8.900;2023-06-10T16:41:13;4.50;;;3.13;;
19036;SDS011;9651;49.138;8.900;2023-06-10T16:45:14;4.18;;;3.17;;
19036;SDS011;9651;49.138;8.900;2023-06-10T16:49:18;3.53;;;3.13;;
19036;SDS011;9651;49.138;8.900;2023-06-10T16:53:20;4.25;;;3.30;;
19036;SDS011;9651;49.138;8.900;2023-06-10T16:57:21;3.80;;;3.13;;
19036;SDS011;9651;49.138;8.900;2023-06-10T17:01:23;3.95;;;3.55;;
19036;SDS011;9651;49.138;8.900;2023-06-10T17:05:27;4.20;;;3.80;;
19036;SDS011;9651;49.138;8.900;2023-06-10T17:09:28;5.03;;;3.55;;
19036;SDS011;9651;49.138;8.900;2023-06-10T17:13:30;3.70;;;3.40;;
19036;SDS011;9651;49.138;8.900;2023-06-10T17:17:32;3.55;;;3.25;;
19036;SDS011;9651;49.138;8.900;2023-06-10T17:21:36;3.90;;;3.60;;
19036;SDS011;9651;49.138;8.900;2023-06-10T17:25:38;3.60;;;3.30;;
19036;SDS011;9651;49.138;8.900;2023-06-10T17:29:40;4.15;;;3.47;;
19036;SDS011;9651;49.138;8.900;2023-06-10T17:33:42;6.20;;;2.95;;
19036;SDS011;9651;49.138;8.900;2023-06-10T17:37:45;3.60;;;3.30;;
19036;SDS011;9651;49.138;8.900;2023-06-10T17:41:47;4.15;;;3.75;;
19036;SDS011;9651;49.138;8.900;2023-06-10T17:45:49;4.30;;;3.47;;
19036;SDS011;9651;49.138;8.900;2023-06-10T17:49:51;3.45;;;3.15;;
19036;SDS011;9651;49.138;8.900;2023-06-10T17:53:54;4.30;;;3.25;;
19036;SDS011;9651;49.138;8.900;2023-06-10T17:57:56;3.28;;;3.00;;
19036;SDS011;9651;49.138;8.900;2023-06-10T18:01:58;4.32;;;2.78;;
19036;SDS011;9651;49.138;8.900;2023-06-10T18:06:00;5.45;;;3.30;;
19036;SDS011;9651;49.138;8.900;2023-06-10T18:10:04;27.30;;;5.03;;
19036;SDS011;9651;49.138;8.900;2023-06-10T18:14:06;3.30;;;3.00;;
19036;SDS011;9651;49.138;8.900;2023-06-10T18:18:09;3.28;;;2.97;;
19036;SDS011;9651;49.138;8.900;2023-06-10T18:22:11;3.20;;;2.97;;
19036;SDS011;9651;49.138;8.900;2023-06-10T18:26:14;3.13;;;2.75;;
19036;SDS011;9651;49.138;8.900;2023-06-10T18:30:16;3.03;;;2.70;;
19036;SDS011;9651;49.138;8.900;2023-06-10T18:34:18;3.38;;;3.10;;
19036;SDS011;9651;49.138;8.900;2023-06-10T18:38:20;3.42;;;3.20;;
19036;SDS011;9651;49.138;8.900;2023-06-10T18:42:23;5.50;;;3.72;;
19036;SDS011;9651;49.138;8.900;2023-06-10T18:46:25;5.93;;;3.33;;
19036;SDS011;9651;49.138;8.900;2023-06-10T18:50:27;7.90;;;3.13;;
19036;SDS011;9651;49.138;8.900;2023-06-10T18:54:29;4.60;;;3.47;;
19036;SDS011;9651;49.138;8.900;2023-06-10T18:58:32;6.43;;;3.85;;
19036;SDS011;9651;49.138;8.900;2023-06-10T19:02:34;3.65;;;3.30;;
19036;SDS011;9651;49.138;8.900;2023-06-10T19:06:36;3.72;;;3.42;;
19036;SDS011;9651;49.138;8.900;2023-06-10T19:10:39;3.63;;;3.33;;
19036;SDS011;9651;49.138;8.900;2023-06-10T19:14:42;4.47;;;3.60;;
19036;SDS011;9651;49.138;8.900;2023-06-10T19:18:44;4.20;;;3.70;;
19036;SDS011;9651;49.138;8.900;2023-06-10T19:22:46;3.70;;;3.40;;
19036;SDS011;9651;49.138;8.900;2023-06-10T19:26:48;3.40;;;3.20;;
19036;SDS011;9651;49.138;8.900;2023-06-10T19:30:51;9.23;;;3.42;;
19036;SDS011;9651;49.138;8.900;2023-06-10T19:34:53;4.75;;;3.65;;
19036;SDS011;9651;49.138;8.900;2023-06-10T19:38:55;4.57;;;3.95;;
19036;SDS011;9651;49.138;8.900;2023-06-10T19:42:57;4.95;;;3.88;;
19036;SDS011;9651;49.138;8.900;2023-06-10T19:47:00;4.28;;;3.65;;
19036;SDS011;9651;49.138;8.900;2023-06-10T19:51:02;4.03;;;3.60;;
19036;SDS011;9651;49.138;8.900;2023-06-10T19:55:04;5.30;;;4.10;;
19036;SDS011;9651;49.138;8.900;2023-06-10T19:59:07;6.30;;;4.32;;
19036;SDS011;9651;49.138;8.900;2023-06-10T20:03:10;4.68;;;4.10;;
19036;SDS011;9651;49.138;8.900;2023-06-10T20:07:12;4.55;;;4.15;;
19036;SDS011;9651;49.138;8.900;2023-06-10T20:11:14;5.10;;;4.60;;
19036;SDS011;9651;49.138;8.900;2023-06-10T20:15:16;6.13;;;4.45;;
19036;SDS011;9651;49.138;8.900;2023-06-10T20:19:19;4.47;;;4.10;;
19036;SDS011;9651;49.138;8.900;2023-06-10T20:23:21;6.13;;;3.85;;
19036;SDS011;9651;49.138;8.900;2023-06-10T20:27:23;4.57;;;4.18;;
19036;SDS011;9651;49.138;8.900;2023-06-10T20:31:25;5.82;;;4.65;;
19036;SDS011;9651;49.138;8.900;2023-06-10T20:35:28;6.18;;;4.72;;
19036;SDS011;9651;49.138;8.900;2023-06-10T20:39:30;4.70;;;4.22;;
19036;SDS011;9651;49.138;8.900;2023-06-10T20:43:32;4.78;;;4.38;;
19036;SDS011;9651;49.138;8.900;2023-06-10T20:47:34;6.88;;;4.70;;
19036;SDS011;9651;49.138;8.900;2023-06-10T20:51:37;5.18;;;4.68;;
19036;SDS011;9651;49.138;8.900;2023-06-10T20:55:39;5.43;;;4.45;;
19036;SDS011;9651;49.138;8.900;2023-06-10T20:59:41;7.03;;;4.43;;
19036;SDS011;9651;49.138;8.900;2023-06-10T21:03:43;5.10;;;4.60;;
19036;SDS011;9651;49.138;8.900;2023-06-10T21:07:46;4.60;;;4.20;;
19036;SDS011;9651;49.138;8.900;2023-06-10T21:11:48;5.43;;;4.60;;
19036;SDS011;9651;49.138;8.900;2023-06-10T21:15:50;5.20;;;4.70;;
19036;SDS011;9651;49.138;8.900;2023-06-10T21:19:52;4.88;;;4.40;;
19036;SDS011;9651;49.138;8.900;2023-06-10T21:23:55;6.85;;;5.10;;
19036;SDS011;9651;49.138;8.900;2023-06-10T21:27:57;5.32;;;4.82;;
19036;SDS011;9651;49.138;8.900;2023-06-10T21:31:59;5.32;;;4.57;;
19036;SDS011;9651;49.138;8.900;2023-06-10T21:36:01;5.88;;;5.15;;
19036;SDS011;9651;49.138;8.900;2023-06-10T21:40:05;7.45;;;4.47;;
19036;SDS011;9651;49.138;8.900;2023-06-10T21:44:08;5.40;;;4.90;;
19036;SDS011;9651;49.138;8.900;2023-06-10T21:48:10;5.88;;;5.28;;
19036;SDS011;9651;49.138;8.900;2023-06-10T21:52:12;4.95;;;4.55;;
19036;SDS011;9651;49.138;8.900;2023-06-10T21:56:15;8.93;;;4.80;;
19036;SDS011;9651;49.138;8.900;2023-06-10T22:00:18;6.45;;;4.78;;
19036;SDS011;9651;49.138;8.900;2023-06-10T22:04:20;6.07;;;4.68;;
19036;SDS011;9651;49.138;8.900;2023-06-10T22:08:23;4.55;;;4.15;;
19036;SDS011;9651;49.138;8.900;2023-06-10T22:12:26;4.90;;;4.50;;
19036;SDS011;9651;49.138;8.900;2023-06-10T22:16:28;5.40;;;4.90;;
19036;SDS011;9651;49.138;8.900;2023-06-10T22:20:30;4.70;;;4.30;;
19036;SDS011;9651;49.138;8.900;2023-06-10T22:24:32;5.13;;;4.63;;
19036;SDS011;9651;49.138;8.900;2023-06-10T22:28:36;5.47;;;4.97;;
19036;SDS011;9651;49.138;8.900;2023-06-10T22:32:38;4.70;;;4.30;;
19036;SDS011;9651;49.138;8.900;2023-06-10T22:36:40;5.15;;;4.60;;
19036;SDS011;9651;49.138;8.900;2023-06-10T22:40:42;6.15;;;5.38;;
19036;SDS011;9651;49.138;8.900;2023-06-10T22:44:45;4.80;;;4.32;;
19036;SDS011;9651;49.138;8.900;2023-06-10T22:48:47;4.85;;;4.45;;
19036;SDS011;9651;49.138;8.900;2023-06-10T22:52:49;4.90;;;4.20;;
19036;SDS011;9651;49.138;8.900;2023-06-10T22:56:53;5.63;;;4.25;;
19036;SDS011;9651;49.138;8.900;2023-06-10T23:00:56;5.85;;;5.03;;
19036;SDS011;9651;49.138;8.900;2023-06-10T23:04:58;4.70;;;4.30;;
19036;SDS011;9651;49.138;8.900;2023-06-10T23:09:00;5.10;;;4.60;;
19036;SDS011;9651;49.138;8.900;2023-06-10T23:13:02;5.13;;;4.63;;
19036;SDS011;9651;49.138;8.900;2023-06-10T23:17:05;5.38;;;4.88;;
19036;SDS011;9651;49.138;8.900;2023-06-10T23:21:08;6.47;;;4.95;;
19036;SDS011;9651;49.138;8.900;2023-06-10T23:25:10;5.25;;;4.75;;
19036;SDS011;9651;49.138;8.900;2023-06-10T23:29:12;5.75;;;4.63;;
19036;SDS011;9651;49.138;8.900;2023-06-10T23:33:15;6.68;;;5.00;;
19036;SDS011;9651;49.138;8.900;2023-06-10T23:37:18;5.85;;;5.07;;
19036;SDS011;9651;49.138;8.900;2023-06-10T23:41:20;6.03;;;4.65;;
19036;SDS011;9651;49.138;8.900;2023-06-10T23:45:22;5.70;;;5.10;;
19036;SDS011;9651;49.138;8.900;2023-06-10T23:49:25;5.38;;;4.88;;
19036;SDS011;9651;49.138;8.900;2023-06-10T23:53:27;6.43;;;5.05;;
19036;SDS011;9651;49.138;8.900;2023-06-10T23:57:29;5.57;;;4.95;;
